createdAt,value
2022-08-03T00:02:32.493Z,10.57
2022-08-03T00:07:35.450Z,6.93
2022-08-03T00:12:38.473Z,6.82
2022-08-03T00:17:52.782Z,9.02
2022-08-03T00:22:56.627Z,11.05
2022-08-03T00:27:59.468Z,12.57
2022-08-03T00:33:04.015Z,7.82
2022-08-03T00:38:07.377Z,8.82
2022-08-03T00:43:10.631Z,7.97
2022-08-03T00:48:29.820Z,8.40
2022-08-03T00:53:38.020Z,8.50
2022-08-03T00:58:40.887Z,6.53
2022-08-03T01:03:45.061Z,9.70
2022-08-03T01:08:53.749Z,11.20
2022-08-03T01:14:18.698Z,7.90
2022-08-03T01:19:36.752Z,8.02
2022-08-03T01:24:51.856Z,9.13
2022-08-03T01:30:05.901Z,7.65
2022-08-03T01:35:13.215Z,9.63
2022-08-03T01:40:17.350Z,7.45
2022-08-03T01:45:23.480Z,6.60
2022-08-03T01:50:30.207Z,7.10
2022-08-03T01:55:35.786Z,7.45
2022-08-03T02:00:42.019Z,8.60
2022-08-03T02:05:48.448Z,8.30
2022-08-03T02:10:53.048Z,8.02
2022-08-03T02:15:59.162Z,7.45
2022-08-03T02:21:10.619Z,10.85
2022-08-03T02:26:18.816Z,9.07
2022-08-03T02:31:26.034Z,10.15
2022-08-03T02:36:31.928Z,10.07
2022-08-03T02:41:46.668Z,9.05
2022-08-03T02:46:56.168Z,8.90
2022-08-03T02:52:00.108Z,9.10
2022-08-03T02:57:04.324Z,9.07
2022-08-03T03:02:09.015Z,8.18
2022-08-03T03:07:13.744Z,9.88
2022-08-03T03:12:19.118Z,8.32
2022-08-03T03:17:24.996Z,8.43
2022-08-03T03:22:28.617Z,8.55
2022-08-03T03:27:31.791Z,10.60
2022-08-03T03:32:37.353Z,10.00
2022-08-03T03:37:40.232Z,9.93
2022-08-03T03:42:43.739Z,9.68
2022-08-03T03:47:48.394Z,8.93
2022-08-03T03:52:51.336Z,11.25
2022-08-03T03:57:54.182Z,10.57
2022-08-03T04:02:58.420Z,9.38
2022-08-03T04:08:21.812Z,8.82
2022-08-03T04:13:28.435Z,12.57
2022-08-03T04:18:35.757Z,10.57
2022-08-03T04:23:42.633Z,10.60
2022-08-03T04:28:47.787Z,12.77
2022-08-03T04:33:53.751Z,11.40
2022-08-03T04:39:03.462Z,11.13
2022-08-03T04:44:07.564Z,10.65
2022-08-03T04:49:12.661Z,15.40
2022-08-03T04:54:16.378Z,12.88
2022-08-03T04:59:19.173Z,15.80
2022-08-03T05:04:23.385Z,12.43
2022-08-03T05:09:50.826Z,16.33
2022-08-03T05:14:48.994Z,12.30
2022-08-03T05:19:53.542Z,11.75
2022-08-03T05:24:56.380Z,10.02
2022-08-03T05:30:30.371Z,9.68
2022-08-03T05:36:02.258Z,11.10
2022-08-03T05:40:56.778Z,10.40
2022-08-03T05:46:11.687Z,10.77
2022-08-03T05:51:17.205Z,12.80
2022-08-03T05:56:23.527Z,10.18
2022-08-03T06:01:26.396Z,17.55
2022-08-03T06:06:32.413Z,12.60
2022-08-03T06:11:35.421Z,14.93
2022-08-03T06:16:38.648Z,10.70
2022-08-03T06:21:43.024Z,9.75
2022-08-03T06:26:48.417Z,9.07
2022-08-03T06:31:51.543Z,13.82
2022-08-03T06:37:01.745Z,11.27
2022-08-03T06:42:05.185Z,7.90
2022-08-03T06:47:09.659Z,11.20
2022-08-03T06:52:14.246Z,7.03
2022-08-03T06:57:37.072Z,8.20
2022-08-03T07:02:40.173Z,6.65
2022-08-03T07:07:44.923Z,5.75
2022-08-03T07:12:55.865Z,6.65
2022-08-03T07:18:00.125Z,6.10
2022-08-03T07:23:04.484Z,5.28
2022-08-03T07:33:11.466Z,5.00
2022-08-03T07:38:16.254Z,3.53
2022-08-03T07:43:19.189Z,4.90
2022-08-03T07:48:22.139Z,3.55
2022-08-03T07:53:26.388Z,4.38
2022-08-03T08:03:49.889Z,2.88
2022-08-03T08:08:59.526Z,5.75
2022-08-03T08:14:03.882Z,5.28
2022-08-03T08:19:07.021Z,5.88
2022-08-03T08:24:13.350Z,3.92
2022-08-03T08:29:23.224Z,5.85
2022-08-03T08:34:26.017Z,6.97
2022-08-03T08:39:30.231Z,4.22
2022-08-03T08:44:33.295Z,4.78
2022-08-03T08:49:37.410Z,7.15
2022-08-03T08:54:43.583Z,4.82
2022-08-03T08:59:47.792Z,5.33
2022-08-03T09:04:54.392Z,6.03
2022-08-03T09:10:08.189Z,6.63
2022-08-03T09:15:21.293Z,3.28
2022-08-03T09:20:25.433Z,4.88
2022-08-03T09:25:31.712Z,4.57
2022-08-03T09:30:35.602Z,4.03
2022-08-03T09:35:58.126Z,5.22
2022-08-03T09:41:02.415Z,7.57
2022-08-03T09:46:07.586Z,5.65
2022-08-03T09:51:13.649Z,4.95
2022-08-03T09:56:45.409Z,3.85
2022-08-03T10:01:48.366Z,3.75
2022-08-03T10:07:05.505Z,7.22
2022-08-03T10:12:10.881Z,6.40
2022-08-03T10:17:14.144Z,4.70
2022-08-03T10:22:19.896Z,6.85
2022-08-03T10:27:25.360Z,4.47
2022-08-03T10:32:32.573Z,3.78
2022-08-03T10:37:42.612Z,4.10
2022-08-03T10:43:08.960Z,3.63
2022-08-03T10:48:12.609Z,3.03
2022-08-03T10:53:17.979Z,4.10
2022-08-03T10:58:53.489Z,5.90
2022-08-03T11:04:18.041Z,6.38
2022-08-03T11:09:20.826Z,3.15
2022-08-03T11:14:25.141Z,4.68
2022-08-03T11:19:56.868Z,4.95
2022-08-03T11:25:01.727Z,4.57
2022-08-03T11:30:08.666Z,5.57
2022-08-03T11:40:34.795Z,4.00
2022-08-03T11:45:39.054Z,4.95
2022-08-03T11:50:45.103Z,5.68
2022-08-03T11:55:49.820Z,5.17
2022-08-03T12:00:54.321Z,5.35
2022-08-03T12:05:57.190Z,6.00
2022-08-03T12:11:01.599Z,6.50
2022-08-03T12:16:06.372Z,4.47
2022-08-03T12:21:11.539Z,3.55
2022-08-03T12:26:14.340Z,6.22
2022-08-03T12:31:18.603Z,6.07
2022-08-03T12:36:21.489Z,4.72
2022-08-03T12:41:30.125Z,5.03
2022-08-03T12:46:36.120Z,5.35
2022-08-03T12:51:57.047Z,5.45
2022-08-03T12:57:01.234Z,8.52
2022-08-03T13:02:09.165Z,4.45
2022-08-03T13:07:14.439Z,4.07
2022-08-03T13:12:18.415Z,4.40
2022-08-03T13:17:22.772Z,6.88
2022-08-03T13:22:28.906Z,6.25
2022-08-03T13:28:03.757Z,8.87
2022-08-03T13:32:58.424Z,6.13
2022-08-03T13:38:01.703Z,3.07
2022-08-03T13:43:04.604Z,6.32
2022-08-03T13:48:08.910Z,2.67
2022-08-03T13:53:11.711Z,5.95
2022-08-03T13:58:15.584Z,5.53
2022-08-03T14:03:20.397Z,5.20
2022-08-03T14:08:23.209Z,4.15
2022-08-03T14:13:26.007Z,6.57
2022-08-03T14:18:33.837Z,5.30
2022-08-03T14:23:38.445Z,5.85
2022-08-03T14:28:42.122Z,4.90
2022-08-03T14:33:46.369Z,4.00
2022-08-03T14:38:49.398Z,4.65
2022-08-03T14:44:00.486Z,4.07
2022-08-03T14:50:35.966Z,5.35
2022-08-03T14:54:30.927Z,7.00
2022-08-03T14:59:55.627Z,6.55
2022-08-03T15:04:58.167Z,3.63
2022-08-03T15:10:02.368Z,7.15
2022-08-03T15:15:06.019Z,4.65
2022-08-03T15:20:25.593Z,6.45
2022-08-03T15:26:29.500Z,5.95
2022-08-03T15:30:57.342Z,6.20
2022-08-03T15:36:01.563Z,3.88
2022-08-03T15:41:04.435Z,4.00
2022-08-03T15:51:31.894Z,5.22
2022-08-03T15:56:34.908Z,5.10
2022-08-03T16:01:37.787Z,5.43
2022-08-03T16:06:42.195Z,6.10
2022-08-03T16:11:45.447Z,3.95
2022-08-03T16:16:48.276Z,6.10
2022-08-03T16:21:52.550Z,4.72
2022-08-03T16:26:55.579Z,6.32
2022-08-03T16:31:58.455Z,5.43
2022-08-03T16:37:16.711Z,8.32
2022-08-03T16:42:26.116Z,4.20
2022-08-03T16:47:29.329Z,7.03
2022-08-03T16:52:36.770Z,3.00
2022-08-03T16:57:58.651Z,6.00
2022-08-03T17:03:19.014Z,6.22
2022-08-03T17:08:28.227Z,7.38
2022-08-03T17:13:40.064Z,5.35
2022-08-03T17:18:52.556Z,7.38
2022-08-03T17:24:05.029Z,4.75
2022-08-03T17:29:23.181Z,6.03
2022-08-03T17:34:28.335Z,7.60
2022-08-03T17:39:58.882Z,7.07
2022-08-03T17:44:58.080Z,6.85
2022-08-03T17:50:01.001Z,5.88
2022-08-03T17:55:55.831Z,6.38
2022-08-03T18:00:52.368Z,5.82
2022-08-03T18:06:10.540Z,5.20
2022-08-03T18:11:21.595Z,4.80
2022-08-03T18:16:32.699Z,9.20
2022-08-03T18:22:01.964Z,7.40
2022-08-03T18:27:02.580Z,9.85
2022-08-03T18:32:13.709Z,8.68
2022-08-03T18:37:24.967Z,8.30
2022-08-03T18:42:32.144Z,11.23
2022-08-03T18:47:52.991Z,8.88
2022-08-03T18:53:05.389Z,8.55
2022-08-03T18:58:30.689Z,6.28
2022-08-03T19:03:41.438Z,9.13
2022-08-03T19:08:50.162Z,7.97
2022-08-03T19:13:59.202Z,10.20
2022-08-03T19:19:02.744Z,7.63
2022-08-03T19:24:10.417Z,10.63
2022-08-03T19:29:17.055Z,9.38
2022-08-03T19:34:22.050Z,10.70
2022-08-03T19:39:27.285Z,9.30
2022-08-03T19:44:34.706Z,10.05
2022-08-03T19:55:04.249Z,10.35
2022-08-03T20:00:12.533Z,12.07
2022-08-03T20:05:18.399Z,10.35
2022-08-03T20:10:21.608Z,8.23
2022-08-03T20:15:31.047Z,9.48
2022-08-03T20:20:36.511Z,9.77
2022-08-03T20:25:48.716Z,10.20
2022-08-03T20:31:02.214Z,11.90
2022-08-03T20:36:05.907Z,12.13
2022-08-03T20:41:09.069Z,11.70
2022-08-03T20:46:31.311Z,9.15
2022-08-03T20:51:50.550Z,10.27
2022-08-03T20:56:56.784Z,9.27
2022-08-03T21:02:02.382Z,8.02
2022-08-03T21:07:16.496Z,9.18
2022-08-03T21:12:26.808Z,8.82
2022-08-03T21:17:40.990Z,10.50
2022-08-03T21:22:49.480Z,10.00
2022-08-03T21:27:52.935Z,10.02
2022-08-03T21:32:58.934Z,10.23
2022-08-03T21:38:21.009Z,9.65
2022-08-03T21:43:32.876Z,7.90
2022-08-03T21:48:39.650Z,10.35
2022-08-03T21:54:00.306Z,9.83
2022-08-03T21:59:08.907Z,11.05
2022-08-03T22:04:50.222Z,10.70
2022-08-03T22:09:40.689Z,9.63
2022-08-03T22:15:01.219Z,9.98
2022-08-03T22:20:10.230Z,10.18
2022-08-03T22:25:15.406Z,7.38
2022-08-03T22:30:20.512Z,6.80
2022-08-03T22:35:26.354Z,11.30
2022-08-03T22:40:29.615Z,9.57
2022-08-03T22:46:07.013Z,12.00
2022-08-03T22:50:58.288Z,9.18
2022-08-03T22:56:02.315Z,11.25
2022-08-03T23:01:07.826Z,10.07
2022-08-03T23:06:12.349Z,10.82
2022-08-03T23:11:18.615Z,8.45
2022-08-03T23:16:28.977Z,9.77
2022-08-03T23:21:59.987Z,13.40
2022-08-03T23:26:59.027Z,13.07
2022-08-03T23:32:03.226Z,9.00
2022-08-03T23:37:07.585Z,10.75
2022-08-03T23:42:12.120Z,13.50
2022-08-03T23:47:15.571Z,9.82
2022-08-03T23:52:30.335Z,9.77
2022-08-03T23:57:40.724Z,8.40
